createdAt,value
2019-05-17T00:01:59.233Z,2.73
2019-05-17T00:04:26.969Z,2.17
2019-05-17T00:06:53.239Z,2.17
2019-05-17T00:09:19.527Z,2.53
2019-05-17T00:11:47.303Z,1.90
2019-05-17T00:14:13.928Z,1.80
2019-05-17T00:16:40.258Z,1.67
2019-05-17T00:19:07.445Z,3.27
2019-05-17T00:21:36.787Z,1.90
2019-05-17T00:24:03.022Z,2.07
2019-05-17T00:26:29.472Z,1.90
2019-05-17T00:28:56.296Z,1.60
2019-05-17T00:31:23.664Z,1.97
2019-05-17T00:33:49.724Z,1.80
2019-05-17T00:36:17.870Z,1.70
2019-05-17T00:38:48.364Z,1.50
2019-05-17T00:41:11.760Z,2.03
2019-05-17T00:43:37.909Z,2.10
2019-05-17T00:46:06.509Z,2.07
2019-05-17T00:48:32.581Z,1.60
2019-05-17T00:51:02.244Z,1.80
2019-05-17T00:53:26.946Z,1.70
2019-05-17T00:55:53.832Z,1.90
2019-05-17T00:58:19.985Z,1.50
2019-05-17T01:00:47.855Z,1.70
2019-05-17T01:03:16.254Z,1.70
2019-05-17T01:05:43.236Z,1.57
2019-05-17T01:08:09.292Z,1.70
2019-05-17T01:10:36.836Z,2.67
2019-05-17T01:13:03.429Z,2.13
2019-05-17T01:15:29.556Z,1.77
2019-05-17T01:17:56.335Z,1.83
2019-05-17T01:20:22.469Z,1.97
2019-05-17T01:22:48.555Z,1.77
2019-05-17T01:25:17.185Z,1.73
2019-05-17T01:27:43.593Z,2.13
2019-05-17T01:30:11.138Z,1.80
2019-05-17T01:32:37.557Z,1.50
2019-05-17T01:35:04.321Z,1.57
2019-05-17T01:37:30.649Z,1.83
2019-05-17T01:39:57.352Z,2.40
2019-05-17T01:42:26.389Z,1.90
2019-05-17T01:44:52.503Z,1.90
2019-05-17T01:47:18.955Z,1.60
2019-05-17T01:49:46.949Z,1.63
2019-05-17T01:52:12.991Z,2.00
2019-05-17T01:54:39.443Z,3.80
2019-05-17T01:57:07.375Z,1.63
2019-05-17T01:59:33.759Z,2.80
2019-05-17T02:02:02.098Z,2.47
2019-05-17T02:04:28.547Z,2.00
2019-05-17T02:06:57.272Z,1.87
2019-05-17T02:09:34.966Z,2.10
2019-05-17T02:11:50.928Z,1.67
2019-05-17T02:14:17.020Z,1.70
2019-05-17T02:16:43.157Z,1.70
2019-05-17T02:19:09.236Z,1.57
2019-05-17T02:21:36.702Z,1.60
2019-05-17T02:24:04.111Z,1.77
2019-05-17T02:26:30.159Z,2.10
2019-05-17T02:28:56.883Z,1.80
2019-05-17T02:31:24.778Z,1.40
2019-05-17T02:33:53.533Z,1.87
2019-05-17T02:36:22.855Z,1.73
2019-05-17T02:38:48.337Z,1.60
2019-05-17T02:41:14.847Z,1.50
2019-05-17T02:43:43.409Z,1.80
2019-05-17T02:46:09.285Z,1.70
2019-05-17T02:48:35.614Z,1.60
2019-05-17T02:51:03.529Z,1.77
2019-05-17T02:53:33.171Z,1.83
2019-05-17T02:55:57.669Z,1.60
2019-05-17T02:58:24.422Z,1.43
2019-05-17T03:00:53.311Z,1.97
2019-05-17T03:03:19.065Z,1.87
2019-05-17T03:05:45.767Z,1.80
2019-05-17T03:08:12.393Z,1.60
2019-05-17T03:10:43.308Z,1.80
2019-05-17T03:13:08.922Z,1.73
2019-05-17T03:15:36.473Z,1.53
2019-05-17T03:18:04.035Z,1.67
2019-05-17T03:20:32.717Z,1.30
2019-05-17T03:22:58.876Z,1.30
2019-05-17T03:25:25.329Z,2.10
2019-05-17T03:27:53.576Z,1.80
2019-05-17T03:30:25.341Z,1.50
2019-05-17T03:32:55.469Z,1.43
2019-05-17T03:35:18.489Z,2.00
2019-05-17T03:37:45.554Z,1.70
2019-05-17T03:40:35.087Z,1.63
2019-05-17T03:42:42.896Z,1.70
2019-05-17T03:45:13.738Z,2.03
2019-05-17T03:47:43.927Z,1.80
2019-05-17T03:50:13.115Z,1.97
2019-05-17T03:52:38.238Z,2.20
2019-05-17T03:55:05.952Z,1.93
2019-05-17T03:57:32.494Z,1.63
2019-05-17T04:00:03.521Z,1.40
2019-05-17T04:02:27.748Z,1.77
2019-05-17T04:04:54.169Z,1.87
2019-05-17T04:07:23.377Z,2.10
2019-05-17T04:09:48.249Z,1.87
2019-05-17T04:12:14.664Z,2.13
2019-05-17T04:14:42.968Z,1.47
2019-05-17T04:17:09.469Z,1.40
2019-05-17T04:19:36.360Z,2.10
2019-05-17T04:22:03.466Z,2.23
2019-05-17T04:24:32.406Z,1.60
2019-05-17T04:26:58.378Z,1.60
2019-05-17T04:29:24.480Z,1.70
2019-05-17T04:31:54.610Z,1.60
2019-05-17T04:34:22.438Z,2.00
2019-05-17T04:36:52.088Z,1.73
2019-05-17T04:39:17.173Z,2.27
2019-05-17T04:41:49.724Z,1.60
2019-05-17T04:44:12.801Z,1.50
2019-05-17T04:46:42.933Z,1.77
2019-05-17T04:49:08.228Z,1.90
2019-05-17T04:51:35.904Z,1.70
2019-05-17T04:54:03.203Z,1.70
2019-05-17T04:56:32.975Z,2.00
2019-05-17T04:58:58.105Z,1.53
2019-05-17T05:01:24.520Z,1.67
2019-05-17T05:03:52.489Z,1.63
2019-05-17T05:06:18.564Z,1.67
2019-05-17T05:08:45.331Z,1.23
2019-05-17T05:11:12.686Z,1.43
2019-05-17T05:13:42.421Z,1.80
2019-05-17T05:16:07.999Z,1.67
2019-05-17T05:18:34.744Z,1.70
2019-05-17T05:21:03.526Z,1.70
2019-05-17T05:23:31.736Z,1.63
2019-05-17T05:25:57.411Z,1.90
2019-05-17T05:28:23.778Z,1.40
2019-05-17T05:30:52.565Z,1.60
2019-05-17T05:33:18.201Z,1.43
2019-05-17T05:35:44.871Z,1.83
2019-05-17T05:38:13.018Z,1.70
2019-05-17T05:40:41.490Z,1.40
2019-05-17T05:43:08.906Z,1.80
2019-05-17T05:45:35.229Z,1.67
2019-05-17T05:48:01.786Z,1.83
2019-05-17T05:50:28.364Z,1.90
2019-05-17T05:52:54.834Z,2.13
2019-05-17T05:55:23.386Z,2.03
2019-05-17T05:57:49.540Z,2.03
2019-05-17T06:00:17.103Z,1.93
2019-05-17T06:02:43.301Z,2.00
2019-05-17T06:05:14.751Z,1.70
2019-05-17T06:07:41.508Z,1.93
2019-05-17T06:10:08.981Z,2.00
2019-05-17T06:12:35.443Z,2.10
2019-05-17T06:15:04.644Z,2.30
2019-05-17T06:17:31.807Z,1.70
2019-05-17T06:19:58.493Z,2.07
2019-05-17T06:22:24.551Z,2.23
2019-05-17T06:24:52.002Z,2.10
2019-05-17T06:27:18.814Z,2.67
2019-05-17T06:29:44.900Z,2.60
2019-05-17T06:32:11.846Z,3.10
2019-05-17T06:34:39.231Z,5.03
2019-05-17T06:37:05.284Z,2.50
2019-05-17T06:39:32.825Z,2.90
2019-05-17T06:41:59.245Z,3.30
2019-05-17T06:44:25.576Z,4.17
2019-05-17T06:46:52.093Z,3.70
2019-05-17T06:49:18.852Z,2.97
2019-05-17T06:51:45.313Z,3.30
2019-05-17T06:54:12.103Z,2.73
2019-05-17T06:56:38.971Z,4.20
2019-05-17T06:59:05.299Z,6.23
2019-05-17T07:01:31.357Z,3.80
2019-05-17T07:04:00.092Z,3.70
2019-05-17T07:06:29.600Z,3.10
2019-05-17T07:08:56.148Z,3.50
2019-05-17T07:11:22.241Z,2.77
2019-05-17T07:13:49.579Z,2.97
2019-05-17T07:16:16.263Z,3.60
2019-05-17T07:18:42.376Z,3.57
2019-05-17T07:21:10.055Z,3.27
2019-05-17T07:23:36.691Z,3.70
2019-05-17T07:26:03.105Z,3.17
2019-05-17T07:28:30.163Z,3.00
2019-05-17T07:30:59.468Z,3.13
2019-05-17T07:33:25.299Z,3.10
2019-05-17T07:35:51.716Z,3.67
2019-05-17T07:38:19.919Z,3.20
2019-05-17T07:40:46.105Z,3.10
2019-05-17T07:43:14.852Z,2.93
2019-05-17T07:45:40.647Z,3.53
2019-05-17T07:48:09.751Z,3.07
2019-05-17T07:50:36.232Z,2.40
2019-05-17T07:53:02.328Z,3.37
2019-05-17T07:55:30.284Z,3.17
2019-05-17T07:57:56.976Z,3.57
2019-05-17T08:00:23.415Z,3.00
2019-05-17T08:02:50.453Z,2.80
2019-05-17T08:05:17.257Z,2.93
2019-05-17T08:07:43.444Z,3.10
2019-05-17T08:10:11.386Z,2.70
2019-05-17T08:12:40.734Z,3.00
2019-05-17T08:15:10.435Z,2.27
2019-05-17T08:17:39.465Z,2.33
2019-05-17T08:20:10.083Z,3.50
2019-05-17T08:22:36.252Z,2.73
2019-05-17T08:25:03.939Z,2.30
2019-05-17T08:27:30.078Z,3.33
2019-05-17T08:29:59.389Z,2.80
2019-05-17T08:32:25.241Z,2.80
2019-05-17T08:34:51.939Z,2.70
2019-05-17T08:37:20.488Z,2.43
2019-05-17T08:39:47.012Z,2.80
2019-05-17T08:42:13.448Z,3.17
2019-05-17T08:44:39.782Z,2.60
2019-05-17T08:47:05.867Z,3.83
2019-05-17T08:49:32.307Z,2.60
2019-05-17T08:51:59.481Z,2.80
2019-05-17T08:54:26.795Z,3.10
2019-05-17T08:56:52.848Z,2.97
2019-05-17T08:59:20.202Z,2.50
2019-05-17T09:01:46.777Z,2.60
2019-05-17T09:04:13.077Z,2.67
2019-05-17T09:06:39.834Z,2.90
2019-05-17T09:09:09.836Z,2.27
2019-05-17T09:11:35.328Z,2.53
2019-05-17T09:14:02.780Z,2.83
2019-05-17T09:16:30.720Z,2.80
2019-05-17T09:18:57.099Z,2.33
2019-05-17T09:21:23.200Z,2.50
2019-05-17T09:23:50.365Z,2.60
2019-05-17T09:26:20.049Z,2.70
2019-05-17T09:28:46.755Z,2.67
2019-05-17T09:31:12.848Z,2.30
2019-05-17T09:33:40.576Z,2.73
2019-05-17T09:36:06.853Z,2.70
2019-05-17T09:38:33.264Z,2.63
2019-05-17T09:40:59.935Z,2.47
2019-05-17T09:43:26.637Z,2.80
2019-05-17T09:45:52.978Z,2.50
2019-05-17T09:48:19.618Z,2.23
2019-05-17T09:50:47.083Z,2.40
2019-05-17T09:53:13.500Z,2.20
2019-05-17T09:55:39.886Z,2.60
2019-05-17T09:58:09.954Z,2.33
2019-05-17T10:00:38.420Z,1.87
2019-05-17T10:03:04.507Z,2.30
2019-05-17T10:05:31.290Z,2.63
2019-05-17T10:07:59.882Z,2.33
2019-05-17T10:10:26.098Z,2.60
2019-05-17T10:12:52.518Z,2.20
2019-05-17T10:15:20.716Z,2.30
2019-05-17T10:17:46.559Z,2.60
2019-05-17T10:20:14.284Z,2.37
2019-05-17T10:22:40.474Z,2.10
2019-05-17T10:25:09.632Z,2.03
2019-05-17T10:27:37.298Z,2.17
2019-05-17T10:30:05.786Z,2.60
2019-05-17T10:32:32.209Z,2.30
2019-05-17T10:35:00.357Z,2.10
2019-05-17T10:37:26.253Z,2.37
2019-05-17T10:39:52.310Z,2.17
2019-05-17T10:42:20.744Z,2.53
2019-05-17T10:44:47.770Z,2.40
2019-05-17T10:47:14.982Z,2.20
2019-05-17T10:49:41.024Z,2.43
2019-05-17T10:52:09.343Z,2.20
2019-05-17T10:54:35.610Z,2.63
2019-05-17T10:57:01.672Z,2.10
2019-05-17T10:59:28.124Z,2.40
2019-05-17T11:01:54.295Z,2.10
2019-05-17T11:04:20.388Z,1.90
2019-05-17T11:06:46.737Z,2.17
2019-05-17T11:09:12.792Z,2.20
2019-05-17T11:11:39.192Z,1.60
2019-05-17T11:14:05.244Z,2.20
2019-05-17T11:16:31.341Z,2.17
2019-05-17T11:18:57.760Z,2.10
2019-05-17T11:21:24.219Z,2.67
2019-05-17T11:23:50.741Z,2.50
2019-05-17T11:26:16.811Z,2.30
2019-05-17T11:28:42.859Z,2.30
2019-05-17T11:31:08.948Z,1.80
2019-05-17T11:33:35.356Z,1.67
2019-05-17T11:36:01.783Z,2.20
2019-05-17T11:38:27.873Z,2.30
2019-05-17T11:40:53.925Z,1.90
2019-05-17T11:43:19.980Z,1.90
2019-05-17T11:45:46.060Z,1.83
2019-05-17T11:48:12.405Z,2.40
2019-05-17T11:50:38.498Z,2.13
2019-05-17T11:53:04.915Z,2.13
2019-05-17T11:55:31.305Z,2.07
2019-05-17T11:57:57.716Z,1.90
2019-05-17T12:00:25.390Z,1.70
2019-05-17T12:02:51.434Z,2.27
2019-05-17T12:05:17.536Z,1.90
2019-05-17T12:07:43.582Z,2.40
2019-05-17T12:10:10.100Z,1.90
2019-05-17T12:12:36.516Z,1.90
2019-05-17T12:15:06.640Z,2.10
2019-05-17T12:17:32.733Z,1.90
2019-05-17T12:19:58.784Z,2.07
2019-05-17T12:22:25.520Z,1.80
2019-05-17T12:24:51.577Z,2.03
2019-05-17T12:27:17.632Z,1.40
2019-05-17T12:29:44.101Z,1.90
2019-05-17T12:32:16.625Z,1.60
2019-05-17T12:34:38.873Z,2.00
2019-05-17T12:37:05.242Z,2.00
2019-05-17T12:39:31.292Z,1.90
2019-05-17T12:41:57.423Z,1.73
2019-05-17T12:44:23.563Z,1.90
2019-05-17T12:46:50.050Z,1.77
2019-05-17T12:49:16.376Z,1.87
2019-05-17T12:51:42.425Z,1.80
2019-05-17T12:54:08.496Z,1.90
2019-05-17T12:56:34.678Z,1.87
2019-05-17T12:59:00.988Z,2.00
2019-05-17T13:01:27.417Z,1.50
2019-05-17T13:03:53.750Z,1.70
2019-05-17T13:06:19.807Z,2.07
2019-05-17T13:08:45.888Z,2.30
2019-05-17T13:11:12.308Z,1.23
2019-05-17T13:13:38.655Z,1.83
2019-05-17T13:16:17.356Z,1.70
2019-05-17T13:18:33.308Z,2.00
2019-05-17T13:20:59.813Z,1.90
2019-05-17T13:23:25.858Z,1.67
2019-05-17T13:25:51.949Z,2.00
2019-05-17T13:28:18.006Z,1.70
2019-05-17T13:30:44.424Z,1.40
2019-05-17T13:33:10.515Z,1.80
2019-05-17T13:35:36.595Z,1.73
2019-05-17T13:38:02.765Z,1.73
2019-05-17T13:40:29.282Z,1.80
2019-05-17T13:42:55.877Z,1.60
2019-05-17T13:45:22.277Z,1.40
2019-05-17T13:47:49.032Z,1.80
2019-05-17T13:50:16.167Z,1.60
2019-05-17T13:52:42.237Z,1.83
2019-05-17T13:55:09.339Z,1.50
2019-05-17T13:57:35.384Z,2.00
2019-05-17T14:00:04.893Z,1.83
2019-05-17T14:02:31.125Z,1.80
2019-05-17T14:04:57.216Z,2.00
2019-05-17T14:07:23.270Z,1.20
2019-05-17T14:09:49.734Z,1.33
2019-05-17T14:12:15.778Z,1.70
2019-05-17T14:14:41.861Z,1.50
2019-05-17T14:17:08.248Z,1.47
2019-05-17T14:19:34.580Z,1.70
2019-05-17T14:22:00.713Z,1.80
2019-05-17T14:24:27.054Z,1.90
2019-05-17T14:26:53.096Z,1.50
2019-05-17T14:29:19.184Z,1.57
2019-05-17T14:31:45.232Z,1.80
2019-05-17T14:34:11.322Z,1.20
2019-05-17T14:36:37.380Z,1.70
2019-05-17T14:39:06.226Z,1.73
2019-05-17T14:41:32.640Z,1.60
2019-05-17T14:43:59.412Z,1.40
2019-05-17T14:46:25.832Z,1.70
2019-05-17T14:48:52.195Z,1.70
2019-05-17T14:51:18.373Z,1.77
2019-05-17T14:53:44.435Z,1.30
2019-05-17T14:56:10.608Z,1.67
2019-05-17T14:58:36.660Z,1.30
2019-05-17T15:01:03.625Z,1.50
2019-05-17T15:03:30.080Z,1.60
2019-05-17T15:05:56.384Z,1.50
2019-05-17T15:08:22.477Z,1.53
2019-05-17T15:10:48.837Z,1.83
2019-05-17T15:13:15.172Z,2.00
2019-05-17T15:15:41.631Z,1.53
2019-05-17T15:18:09.682Z,1.20
2019-05-17T15:20:36.303Z,1.80
2019-05-17T15:23:02.476Z,1.40
2019-05-17T15:25:28.994Z,1.40
2019-05-17T15:27:55.407Z,1.50
2019-05-17T15:30:21.560Z,1.63
2019-05-17T15:32:48.046Z,1.40
2019-05-17T15:35:14.180Z,1.70
2019-05-17T15:37:40.233Z,1.30
2019-05-17T15:40:07.630Z,1.30
2019-05-17T15:42:43.706Z,1.27
2019-05-17T15:45:04.552Z,1.70
2019-05-17T15:47:31.100Z,1.30
2019-05-17T15:49:57.504Z,1.30
2019-05-17T15:52:23.927Z,1.60
2019-05-17T15:54:50.251Z,1.40
2019-05-17T15:57:17.093Z,1.30
2019-05-17T15:59:43.524Z,1.77
2019-05-17T16:02:09.853Z,1.10
2019-05-17T16:04:35.904Z,1.67
2019-05-17T16:07:02.312Z,1.63
2019-05-17T16:09:29.436Z,1.20
2019-05-17T16:11:55.788Z,1.30
2019-05-17T16:14:21.874Z,1.57
2019-05-17T16:16:47.928Z,1.30
2019-05-17T16:19:14.012Z,1.40
2019-05-17T16:21:40.068Z,1.30
2019-05-17T16:24:06.160Z,1.67
2019-05-17T16:26:32.262Z,1.43
2019-05-17T16:28:58.322Z,1.13
2019-05-17T16:31:24.683Z,1.80
2019-05-17T16:33:51.083Z,1.43
2019-05-17T16:36:19.029Z,1.83
2019-05-17T16:38:45.120Z,1.60
2019-05-17T16:41:11.168Z,1.37
2019-05-17T16:43:37.868Z,1.20
2019-05-17T16:46:04.287Z,1.50
2019-05-17T16:48:30.341Z,1.20
2019-05-17T16:50:56.437Z,1.20
2019-05-17T16:53:22.856Z,1.80
2019-05-17T16:55:48.907Z,1.47
2019-05-17T16:58:14.997Z,1.53
2019-05-17T17:00:43.305Z,1.70
2019-05-17T17:03:09.840Z,3.87
2019-05-17T17:05:36.892Z,7.80
2019-05-17T17:08:04.857Z,5.63
2019-05-17T17:10:31.148Z,7.97
2019-05-17T17:12:57.516Z,3.37
2019-05-17T17:15:23.844Z,4.23
2019-05-17T17:17:50.592Z,3.50
2019-05-17T17:20:18.052Z,2.90
2019-05-17T17:22:44.481Z,4.07
2019-05-17T17:25:11.009Z,6.40
2019-05-17T17:27:37.099Z,3.57
2019-05-17T17:30:05.716Z,3.77
2019-05-17T17:32:32.044Z,3.27
2019-05-17T17:34:58.500Z,5.37
2019-05-17T17:37:24.808Z,5.40
2019-05-17T17:39:53.302Z,4.23
2019-05-17T17:42:19.112Z,4.47
2019-05-17T17:44:45.540Z,3.50
2019-05-17T17:47:11.904Z,3.70
2019-05-17T17:49:37.952Z,3.50
2019-05-17T17:52:04.040Z,4.37
2019-05-17T17:54:30.096Z,4.67
2019-05-17T17:56:56.184Z,2.90
2019-05-17T17:59:22.496Z,2.97
2019-05-17T18:01:48.941Z,2.17
2019-05-17T18:04:15.359Z,4.10
2019-05-17T18:06:42.095Z,2.33
2019-05-17T18:09:08.252Z,2.60
2019-05-17T18:11:34.508Z,2.57
2019-05-17T18:14:12.855Z,1.67
2019-05-17T18:16:29.976Z,2.83
2019-05-17T18:18:56.432Z,2.57
2019-05-17T18:21:22.486Z,2.73
2019-05-17T18:23:48.967Z,3.83
2019-05-17T18:26:15.300Z,4.07
2019-05-17T18:28:41.644Z,3.80
2019-05-17T18:31:08.100Z,3.67
2019-05-17T18:33:35.521Z,3.23
2019-05-17T18:36:01.605Z,2.00
2019-05-17T18:38:29.424Z,2.50
2019-05-17T18:40:55.583Z,1.87
2019-05-17T18:43:21.964Z,5.37
2019-05-17T18:45:48.051Z,3.67
2019-05-17T18:48:15.543Z,2.27
2019-05-17T18:50:42.600Z,2.00
2019-05-17T18:53:16.525Z,2.23
2019-05-17T18:55:37.067Z,2.17
2019-05-17T18:58:03.236Z,2.50
2019-05-17T19:00:29.414Z,2.30
2019-05-17T19:02:55.584Z,3.57
2019-05-17T19:05:22.000Z,1.90
2019-05-17T19:07:48.048Z,2.37
2019-05-17T19:10:14.260Z,2.17
2019-05-17T19:12:40.688Z,1.93
2019-05-17T19:15:09.240Z,1.67
2019-05-17T19:17:35.292Z,1.73
2019-05-17T19:20:04.488Z,2.07
2019-05-17T19:22:30.828Z,1.47
2019-05-17T19:24:56.952Z,2.50
2019-05-17T19:27:23.004Z,2.30
2019-05-17T19:29:49.091Z,4.00
2019-05-17T19:32:15.421Z,2.17
2019-05-17T19:34:41.475Z,2.03
2019-05-17T19:37:07.559Z,2.10
2019-05-17T19:39:33.906Z,2.27
2019-05-17T19:42:00.230Z,1.53
2019-05-17T19:44:26.683Z,3.27
2019-05-17T19:46:52.835Z,2.87
2019-05-17T19:49:18.888Z,2.00
2019-05-17T19:51:45.054Z,2.00
2019-05-17T19:54:11.104Z,2.20
2019-05-17T19:56:37.157Z,1.70
2019-05-17T19:59:03.247Z,2.23
2019-05-17T20:01:29.292Z,1.40
2019-05-17T20:03:55.414Z,1.90
2019-05-17T20:06:21.533Z,1.73
2019-05-17T20:08:47.595Z,2.33
2019-05-17T20:11:13.932Z,1.90
2019-05-17T20:13:39.987Z,2.23
2019-05-17T20:16:06.387Z,1.97
2019-05-17T20:18:32.436Z,1.73
2019-05-17T20:20:59.288Z,2.13
2019-05-17T20:23:25.792Z,1.70
2019-05-17T20:25:51.847Z,1.87
2019-05-17T20:28:18.239Z,1.87
2019-05-17T20:30:44.677Z,1.53
2019-05-17T20:33:11.131Z,2.03
2019-05-17T20:35:37.440Z,1.80
2019-05-17T20:38:03.862Z,2.00
2019-05-17T20:40:29.949Z,1.77
2019-05-17T20:42:55.996Z,2.03
2019-05-17T20:45:32.690Z,2.13
2019-05-17T20:47:50.322Z,1.83
2019-05-17T20:50:17.979Z,1.87
2019-05-17T20:52:44.491Z,2.80
2019-05-17T20:55:11.850Z,1.80
2019-05-17T20:57:38.503Z,1.93
2019-05-17T21:00:06.761Z,1.40
2019-05-17T21:02:32.848Z,1.67
2019-05-17T21:04:58.906Z,1.83
2019-05-17T21:07:25.669Z,4.63
2019-05-17T21:09:51.996Z,2.47
2019-05-17T21:12:18.079Z,1.77
2019-05-17T21:14:44.448Z,5.93
2019-05-17T21:17:11.188Z,2.00
2019-05-17T21:19:37.276Z,5.87
2019-05-17T21:22:04.328Z,2.37
2019-05-17T21:24:30.525Z,2.13
2019-05-17T21:26:56.979Z,2.20
2019-05-17T21:29:23.401Z,2.57
2019-05-17T21:31:49.885Z,3.67
2019-05-17T21:34:16.221Z,1.80
2019-05-17T21:36:42.272Z,1.97
2019-05-17T21:39:08.569Z,1.60
2019-05-17T21:41:34.685Z,2.10
2019-05-17T21:44:01.019Z,2.47
2019-05-17T21:46:27.797Z,1.90
2019-05-17T21:48:54.192Z,1.53
2019-05-17T21:51:20.525Z,1.53
2019-05-17T21:53:46.612Z,4.70
2019-05-17T21:56:12.680Z,2.40
2019-05-17T21:58:38.734Z,1.70
2019-05-17T22:01:10.148Z,1.40
2019-05-17T22:03:36.903Z,1.30
2019-05-17T22:06:04.280Z,1.70
2019-05-17T22:08:30.328Z,3.00
2019-05-17T22:10:56.420Z,1.70
2019-05-17T22:13:22.472Z,1.70
2019-05-17T22:15:48.530Z,3.80
2019-05-17T22:18:16.888Z,1.37
2019-05-17T22:20:43.056Z,1.67
2019-05-17T22:23:09.204Z,2.30
2019-05-17T22:25:35.592Z,2.27
2019-05-17T22:28:01.937Z,1.60
2019-05-17T22:30:28.251Z,1.40
2019-05-17T22:32:54.443Z,1.90
2019-05-17T22:35:20.496Z,2.53
2019-05-17T22:37:46.584Z,1.70
2019-05-17T22:40:12.666Z,1.80
2019-05-17T22:42:39.756Z,1.33
2019-05-17T22:45:06.945Z,1.50
2019-05-17T22:47:33.280Z,1.93
2019-05-17T22:49:59.733Z,1.70
2019-05-17T22:52:25.823Z,1.33
2019-05-17T22:54:52.171Z,2.10
2019-05-17T22:57:18.260Z,1.90
2019-05-17T22:59:44.716Z,1.70
2019-05-17T23:02:10.775Z,1.50
2019-05-17T23:04:36.861Z,1.33
2019-05-17T23:07:02.920Z,1.80
2019-05-17T23:09:29.228Z,1.63
2019-05-17T23:11:55.315Z,2.13
2019-05-17T23:14:21.368Z,1.80
2019-05-17T23:16:51.485Z,1.77
2019-05-17T23:19:15.404Z,1.77
2019-05-17T23:21:41.461Z,1.63
2019-05-17T23:24:07.934Z,1.60
2019-05-17T23:26:34.112Z,1.40
2019-05-17T23:29:00.213Z,1.30
2019-05-17T23:31:26.908Z,1.50
2019-05-17T23:33:53.241Z,2.10
2019-05-17T23:36:19.302Z,1.13
2019-05-17T23:38:45.725Z,1.53
2019-05-17T23:41:11.828Z,1.50
2019-05-17T23:43:38.268Z,1.60
2019-05-17T23:46:04.584Z,1.40
2019-05-17T23:48:31.042Z,1.50
2019-05-17T23:50:57.099Z,1.70
2019-05-17T23:53:23.148Z,1.23
2019-05-17T23:55:49.244Z,1.00
2019-05-17T23:58:15.664Z,2.20
